createdAt,value
2023-03-03T00:01:10.315Z,9.67
2023-03-03T00:03:39.129Z,9.00
2023-03-03T00:06:12.432Z,10.50
2023-03-03T00:08:43.305Z,10.47
2023-03-03T00:11:12.515Z,9.40
2023-03-03T00:13:48.338Z,8.10
2023-03-03T00:16:23.962Z,10.17
2023-03-03T00:18:53.766Z,10.23
2023-03-03T00:21:33.734Z,9.97
2023-03-03T00:24:21.821Z,8.70
2023-03-03T00:26:52.191Z,9.47
2023-03-03T00:29:36.770Z,10.20
2023-03-03T00:32:26.125Z,7.93
2023-03-03T00:34:57.395Z,9.87
2023-03-03T00:37:34.516Z,8.97
2023-03-03T00:40:22.547Z,7.97
2023-03-03T00:42:54.249Z,9.40
2023-03-03T00:45:36.328Z,8.83
2023-03-03T00:48:23.087Z,9.13
2023-03-03T00:50:53.118Z,8.67
2023-03-03T00:53:23.916Z,8.37
2023-03-03T00:55:54.769Z,9.90
2023-03-03T00:58:25.113Z,8.13
2023-03-03T01:00:56.697Z,9.13
2023-03-03T01:03:30.750Z,7.53
2023-03-03T01:05:59.672Z,10.33
2023-03-03T01:08:28.561Z,9.07
2023-03-03T01:11:04.181Z,9.23
2023-03-03T01:13:37.898Z,8.63
2023-03-03T01:16:07.979Z,8.90
2023-03-03T01:18:37.756Z,9.80
2023-03-03T01:21:06.727Z,9.07
2023-03-03T01:23:35.183Z,10.83
2023-03-03T01:26:06.325Z,9.20
2023-03-03T01:28:34.849Z,8.30
2023-03-03T01:31:04.127Z,10.30
2023-03-03T01:33:32.864Z,9.53
2023-03-03T01:36:01.464Z,9.30
2023-03-03T01:38:30.068Z,10.03
2023-03-03T01:41:00.936Z,9.07
2023-03-03T01:43:33.429Z,9.97
2023-03-03T01:46:35.480Z,10.30
2023-03-03T01:49:08.229Z,8.80
2023-03-03T01:51:40.270Z,10.10
2023-03-03T01:54:17.553Z,9.17
2023-03-03T01:56:46.168Z,11.07
2023-03-03T01:59:20.047Z,9.23
2023-03-03T02:01:50.629Z,8.10
2023-03-03T02:04:21.912Z,9.53
2023-03-03T02:06:55.676Z,9.60
2023-03-03T02:09:34.286Z,10.00
2023-03-03T02:12:08.685Z,8.07
2023-03-03T02:14:38.614Z,8.97
2023-03-03T02:17:07.893Z,8.93
2023-03-03T02:19:47.528Z,9.47
2023-03-03T02:22:19.043Z,9.00
2023-03-03T02:24:53.085Z,8.97
2023-03-03T02:27:23.856Z,11.70
2023-03-03T02:29:53.351Z,10.27
2023-03-03T02:32:22.354Z,8.37
2023-03-03T02:34:52.987Z,9.57
2023-03-03T02:37:22.038Z,8.13
2023-03-03T02:39:50.376Z,7.83
2023-03-03T02:42:24.976Z,7.90
2023-03-03T02:44:56.660Z,9.00
2023-03-03T02:47:25.335Z,9.53
2023-03-03T02:49:54.055Z,9.30
2023-03-03T02:52:22.732Z,8.90
2023-03-03T02:54:51.518Z,9.33
2023-03-03T02:57:19.896Z,8.53
2023-03-03T02:59:51.368Z,8.60
2023-03-03T03:02:20.353Z,8.67
2023-03-03T03:04:49.264Z,8.60
2023-03-03T03:07:22.756Z,8.87
2023-03-03T03:09:51.627Z,8.53
2023-03-03T03:12:21.236Z,7.37
2023-03-03T03:14:54.784Z,9.73
2023-03-03T03:17:23.123Z,8.33
2023-03-03T03:19:53.978Z,6.50
2023-03-03T03:22:22.861Z,8.87
2023-03-03T03:24:51.641Z,9.83
2023-03-03T03:27:20.361Z,8.87
2023-03-03T03:29:50.077Z,8.63
2023-03-03T03:32:20.914Z,7.80
2023-03-03T03:34:49.630Z,10.13
2023-03-03T03:37:18.243Z,11.73
2023-03-03T03:39:48.252Z,12.30
2023-03-03T03:42:16.643Z,11.33
2023-03-03T03:44:45.174Z,13.30
2023-03-03T03:47:13.614Z,12.40
2023-03-03T03:49:43.384Z,10.83
2023-03-03T03:52:11.855Z,12.73
2023-03-03T03:54:40.289Z,11.13
2023-03-03T03:57:08.759Z,12.27
2023-03-03T03:59:37.543Z,14.63
2023-03-03T04:02:06.366Z,14.63
2023-03-03T04:04:34.972Z,14.43
2023-03-03T04:07:04.939Z,14.50
2023-03-03T04:09:33.542Z,15.70
2023-03-03T04:12:02.820Z,15.47
2023-03-03T04:14:32.208Z,14.50
2023-03-03T04:17:01.370Z,14.33
2023-03-03T04:19:29.736Z,12.63
2023-03-03T04:21:58.086Z,10.23
2023-03-03T04:24:28.141Z,11.03
2023-03-03T04:26:57.249Z,14.23
2023-03-03T04:29:25.587Z,15.20
2023-03-03T04:31:54.368Z,18.07
2023-03-03T04:34:23.492Z,15.93
2023-03-03T04:36:52.531Z,13.43
2023-03-03T04:39:21.003Z,15.07
2023-03-03T04:41:50.957Z,15.17
2023-03-03T04:44:20.246Z,15.73
2023-03-03T04:46:50.354Z,14.80
2023-03-03T04:49:19.132Z,17.17
2023-03-03T04:51:47.491Z,12.80
2023-03-03T04:54:16.096Z,13.63
2023-03-03T04:56:45.481Z,13.00
2023-03-03T04:59:16.157Z,15.03
2023-03-03T05:01:46.481Z,13.80
2023-03-03T05:04:16.001Z,11.23
2023-03-03T05:06:44.621Z,9.90
2023-03-03T05:09:13.054Z,11.43
2023-03-03T05:11:41.447Z,10.00
2023-03-03T05:14:09.788Z,9.07
2023-03-03T05:16:39.891Z,11.60
2023-03-03T05:19:08.659Z,10.77
2023-03-03T05:21:37.948Z,9.03
2023-03-03T05:24:06.611Z,11.40
2023-03-03T05:26:35.033Z,10.97
2023-03-03T05:29:03.567Z,9.53
2023-03-03T05:31:32.143Z,9.77
2023-03-03T05:34:01.979Z,11.70
2023-03-03T05:36:30.444Z,10.93
2023-03-03T05:38:58.779Z,9.43
2023-03-03T05:41:27.370Z,10.90
2023-03-03T05:43:55.829Z,9.90
2023-03-03T05:46:24.667Z,9.70
2023-03-03T05:48:53.230Z,9.27
2023-03-03T05:51:23.075Z,10.87
2023-03-03T05:53:51.514Z,9.20
2023-03-03T05:56:19.939Z,9.23
2023-03-03T05:58:48.372Z,9.00
2023-03-03T06:01:16.752Z,10.83
2023-03-03T06:03:45.096Z,9.27
2023-03-03T06:06:16.250Z,10.60
2023-03-03T06:08:46.356Z,7.90
2023-03-03T06:11:16.696Z,8.97
2023-03-03T06:13:45.223Z,10.80
2023-03-03T06:16:13.547Z,9.63
2023-03-03T06:18:41.909Z,9.00
2023-03-03T06:21:10.423Z,8.30
2023-03-03T06:23:38.903Z,11.00
2023-03-03T06:26:08.963Z,9.03
2023-03-03T06:28:37.388Z,9.17
2023-03-03T06:31:06.411Z,8.57
2023-03-03T06:33:35.043Z,9.23
2023-03-03T06:36:05.721Z,9.13
2023-03-03T06:38:34.319Z,8.70
2023-03-03T06:41:07.223Z,8.27
2023-03-03T06:43:38.000Z,9.03
2023-03-03T06:46:08.081Z,8.40
2023-03-03T06:48:36.896Z,8.33
2023-03-03T06:51:21.365Z,9.67
2023-03-03T06:53:51.529Z,6.97
2023-03-03T06:56:19.985Z,7.50
2023-03-03T06:58:50.680Z,8.20
2023-03-03T07:01:19.407Z,8.50
2023-03-03T07:03:47.953Z,8.87
2023-03-03T07:06:24.692Z,7.10
2023-03-03T07:08:54.103Z,7.23
2023-03-03T07:11:25.320Z,6.90
2023-03-03T07:13:57.276Z,8.33
2023-03-03T07:16:28.659Z,7.50
2023-03-03T07:18:58.997Z,9.00
2023-03-03T07:21:33.098Z,7.77
2023-03-03T07:24:15.097Z,6.57
2023-03-03T07:26:43.581Z,6.37
2023-03-03T07:29:23.971Z,5.97
2023-03-03T07:31:54.229Z,6.97
2023-03-03T07:34:25.393Z,6.30
2023-03-03T07:36:57.285Z,6.20
2023-03-03T07:39:39.057Z,6.60
2023-03-03T07:42:22.199Z,5.10
2023-03-03T07:45:00.947Z,6.03
2023-03-03T07:47:32.327Z,5.90
2023-03-03T07:50:13.558Z,7.47
2023-03-03T07:52:44.600Z,7.47
2023-03-03T07:55:32.006Z,5.93
2023-03-03T07:58:23.078Z,6.53
2023-03-03T08:01:39.779Z,6.20
2023-03-03T08:04:19.369Z,6.77
2023-03-03T08:06:56.760Z,8.27
2023-03-03T08:09:46.020Z,7.93
2023-03-03T08:12:36.516Z,6.53
2023-03-03T08:15:27.559Z,6.23
2023-03-03T08:17:57.985Z,6.97
2023-03-03T08:20:47.197Z,8.10
2023-03-03T08:23:17.785Z,9.30
2023-03-03T08:25:47.210Z,9.90
2023-03-03T08:28:16.325Z,12.70
2023-03-03T08:30:46.384Z,12.37
2023-03-03T08:33:17.072Z,13.93
2023-03-03T08:35:46.152Z,13.50
2023-03-03T08:38:17.646Z,16.63
2023-03-03T08:40:47.233Z,13.17
2023-03-03T08:43:21.437Z,13.73
2023-03-03T08:45:52.347Z,12.43
2023-03-03T08:48:22.375Z,12.70
2023-03-03T08:50:51.321Z,13.13
2023-03-03T08:53:21.360Z,11.43
2023-03-03T08:55:50.054Z,12.50
2023-03-03T08:58:30.486Z,13.50
2023-03-03T09:01:02.082Z,16.90
2023-03-03T09:03:32.121Z,15.83
2023-03-03T09:06:00.555Z,15.37
2023-03-03T09:08:29.020Z,15.93
2023-03-03T09:10:57.501Z,14.03
2023-03-03T09:13:25.924Z,17.80
2023-03-03T09:15:54.409Z,16.97
2023-03-03T09:18:29.721Z,18.27
2023-03-03T09:20:59.935Z,15.63
2023-03-03T09:23:36.210Z,18.67
2023-03-03T09:26:45.398Z,16.60
2023-03-03T09:29:25.593Z,18.43
2023-03-03T09:31:56.616Z,16.20
2023-03-03T09:34:40.168Z,16.90
2023-03-03T09:37:23.400Z,16.63
2023-03-03T09:39:54.205Z,16.93
2023-03-03T09:42:50.960Z,16.67
2023-03-03T09:45:53.358Z,15.03
2023-03-03T09:48:57.069Z,15.17
2023-03-03T09:51:53.923Z,14.57
2023-03-03T09:54:57.414Z,14.13
2023-03-03T09:57:35.981Z,11.57
2023-03-03T10:00:34.202Z,12.43
2023-03-03T10:03:36.600Z,11.33
2023-03-03T10:06:13.016Z,11.20
2023-03-03T10:08:55.745Z,14.03
2023-03-03T10:11:34.429Z,12.70
2023-03-03T10:14:23.005Z,14.07
2023-03-03T10:17:15.899Z,10.80
2023-03-03T10:20:00.152Z,13.97
2023-03-03T10:22:42.667Z,14.57
2023-03-03T10:25:29.679Z,14.67
2023-03-03T10:28:27.771Z,13.80
2023-03-03T10:31:13.602Z,14.93
2023-03-03T10:33:51.070Z,12.53
2023-03-03T10:36:50.449Z,15.37
2023-03-03T10:40:10.881Z,14.47
2023-03-03T10:43:31.879Z,15.60
2023-03-03T10:46:27.020Z,14.77
2023-03-03T10:49:28.770Z,12.87
2023-03-03T10:52:19.709Z,13.97
2023-03-03T10:55:10.020Z,14.57
2023-03-03T10:57:48.032Z,15.10
2023-03-03T11:00:24.637Z,12.83
2023-03-03T11:03:37.245Z,14.07
2023-03-03T11:06:11.884Z,11.30
2023-03-03T11:08:45.969Z,13.83
2023-03-03T11:11:22.458Z,12.73
2023-03-03T11:13:58.103Z,14.80
2023-03-03T11:16:40.710Z,13.40
2023-03-03T11:19:26.725Z,12.30
2023-03-03T11:22:07.668Z,10.10
2023-03-03T11:24:52.456Z,12.83
2023-03-03T11:27:39.656Z,11.23
2023-03-03T11:30:36.488Z,12.80
2023-03-03T11:33:11.244Z,11.17
2023-03-03T11:35:47.085Z,13.60
2023-03-03T11:38:50.004Z,12.47
2023-03-03T11:41:33.465Z,12.70
2023-03-03T11:44:17.215Z,13.17
2023-03-03T11:46:50.672Z,11.90
2023-03-03T11:49:28.387Z,13.80
2023-03-03T11:52:12.264Z,11.43
2023-03-03T11:54:48.251Z,10.90
2023-03-03T11:57:23.763Z,8.80
2023-03-03T12:00:09.385Z,9.73
2023-03-03T12:03:12.498Z,7.50
2023-03-03T12:05:55.707Z,9.10
2023-03-03T12:09:10.213Z,10.07
2023-03-03T12:11:49.117Z,8.53
2023-03-03T12:14:31.791Z,11.17
2023-03-03T12:17:04.848Z,9.40
2023-03-03T12:19:50.753Z,13.83
2023-03-03T12:22:33.981Z,12.87
2023-03-03T12:25:28.560Z,9.50
2023-03-03T12:28:06.639Z,12.17
2023-03-03T12:31:07.104Z,13.20
2023-03-03T12:33:52.998Z,14.23
2023-03-03T12:36:47.842Z,13.07
2023-03-03T12:39:35.145Z,11.17
2023-03-03T12:42:13.069Z,9.33
2023-03-03T12:44:49.429Z,9.90
2023-03-03T12:47:28.634Z,11.57
2023-03-03T12:50:20.453Z,10.07
2023-03-03T12:53:00.348Z,12.83
2023-03-03T12:55:45.961Z,10.90
2023-03-03T12:58:29.582Z,13.87
2023-03-03T13:01:12.528Z,16.07
2023-03-03T13:03:55.689Z,11.60
2023-03-03T13:06:31.185Z,12.83
2023-03-03T13:09:21.249Z,13.97
2023-03-03T13:12:25.656Z,10.83
2023-03-03T13:15:03.888Z,11.97
2023-03-03T13:17:40.038Z,11.57
2023-03-03T13:20:25.150Z,10.80
2023-03-03T13:23:03.032Z,11.43
2023-03-03T13:25:48.953Z,9.93
2023-03-03T13:28:32.220Z,11.83
2023-03-03T13:31:08.099Z,11.97
2023-03-03T13:33:37.862Z,14.20
2023-03-03T13:36:12.120Z,11.20
2023-03-03T13:38:44.431Z,12.97
2023-03-03T13:41:22.453Z,14.67
2023-03-03T13:43:59.036Z,15.33
2023-03-03T13:46:42.765Z,15.13
2023-03-03T13:49:38.436Z,16.80
2023-03-03T13:52:10.197Z,15.43
2023-03-03T13:55:06.330Z,16.90
2023-03-03T13:57:46.886Z,14.83
2023-03-03T14:00:41.806Z,15.20
2023-03-03T14:03:43.673Z,12.37
2023-03-03T14:06:17.333Z,13.00
2023-03-03T14:09:15.313Z,13.80
2023-03-03T14:11:49.691Z,13.77
2023-03-03T14:14:41.675Z,14.53
2023-03-03T14:17:26.891Z,14.37
2023-03-03T14:20:14.164Z,14.27
2023-03-03T14:22:52.945Z,14.47
2023-03-03T14:25:21.970Z,15.57
2023-03-03T14:28:10.368Z,15.37
2023-03-03T14:30:40.740Z,14.70
2023-03-03T14:33:29.541Z,15.23
2023-03-03T14:36:12.725Z,14.17
2023-03-03T14:38:46.644Z,14.20
2023-03-03T14:41:22.183Z,14.03
2023-03-03T14:44:02.344Z,16.67
2023-03-03T14:46:41.871Z,15.93
2023-03-03T14:49:31.766Z,15.97
2023-03-03T14:52:05.156Z,16.83
2023-03-03T14:54:41.351Z,15.47
2023-03-03T14:57:17.491Z,17.60
2023-03-03T15:00:00.223Z,16.73
2023-03-03T15:02:39.764Z,15.67
2023-03-03T15:05:26.209Z,14.20
2023-03-03T15:07:56.899Z,14.33
2023-03-03T15:10:35.846Z,13.93
2023-03-03T15:13:32.848Z,13.70
2023-03-03T15:16:18.730Z,13.40
2023-03-03T15:19:39.093Z,12.97
2023-03-03T15:22:20.388Z,10.40
2023-03-03T15:25:00.027Z,12.97
2023-03-03T15:27:34.760Z,10.97
2023-03-03T15:30:14.741Z,12.30
2023-03-03T15:32:49.175Z,12.27
2023-03-03T15:35:44.823Z,10.97
2023-03-03T15:38:29.335Z,10.33
2023-03-03T15:41:12.200Z,11.40
2023-03-03T15:43:49.857Z,9.63
2023-03-03T15:46:31.432Z,9.90
2023-03-03T15:49:16.981Z,9.80
2023-03-03T15:52:03.947Z,12.27
2023-03-03T15:54:52.383Z,9.53
2023-03-03T15:57:32.534Z,10.80
2023-03-03T16:00:36.767Z,11.73
2023-03-03T16:03:14.381Z,9.20
2023-03-03T16:05:55.711Z,10.40
2023-03-03T16:08:31.404Z,8.20
2023-03-03T16:11:10.132Z,8.20
2023-03-03T16:13:59.231Z,9.70
2023-03-03T16:16:43.802Z,7.03
2023-03-03T16:19:32.599Z,7.47
2023-03-03T16:22:28.551Z,7.70
2023-03-03T16:25:18.843Z,7.23
2023-03-03T16:27:57.163Z,8.97
2023-03-03T16:30:29.703Z,7.20
2023-03-03T16:33:15.119Z,6.67
2023-03-03T16:35:52.303Z,8.97
2023-03-03T16:38:27.547Z,7.63
2023-03-03T16:40:58.929Z,8.17
2023-03-03T16:43:38.839Z,6.67
2023-03-03T16:46:32.898Z,7.00
2023-03-03T16:49:09.962Z,6.80
2023-03-03T16:51:49.861Z,7.77
2023-03-03T16:54:28.922Z,7.07
2023-03-03T16:57:10.924Z,8.30
2023-03-03T16:59:56.072Z,7.07
2023-03-03T17:02:53.591Z,7.67
2023-03-03T17:05:39.914Z,7.63
2023-03-03T17:09:11.760Z,7.80
2023-03-03T17:11:57.974Z,8.93
2023-03-03T17:14:45.538Z,6.80
2023-03-03T17:17:23.824Z,9.17
2023-03-03T17:20:07.230Z,8.17
2023-03-03T17:22:49.138Z,7.00
2023-03-03T17:25:24.455Z,8.83
2023-03-03T17:28:13.368Z,7.50
2023-03-03T17:30:50.174Z,8.33
2023-03-03T17:33:38.038Z,7.27
2023-03-03T17:36:22.755Z,7.27
2023-03-03T17:39:08.932Z,8.50
2023-03-03T17:41:47.159Z,7.90
2023-03-03T17:44:23.682Z,9.60
2023-03-03T17:46:55.412Z,7.90
2023-03-03T17:49:52.253Z,8.33
2023-03-03T17:52:53.329Z,8.53
2023-03-03T17:55:45.366Z,8.20
2023-03-03T17:58:36.213Z,8.50
2023-03-03T18:01:17.925Z,8.33
2023-03-03T18:04:43.449Z,7.93
2023-03-03T18:07:31.175Z,6.83
2023-03-03T18:10:46.864Z,8.20
2023-03-03T18:14:09.628Z,8.40
2023-03-03T18:16:57.746Z,9.27
2023-03-03T18:20:02.319Z,8.97
2023-03-03T18:22:35.305Z,7.60
2023-03-03T18:25:11.986Z,6.33
2023-03-03T18:27:41.508Z,8.83
2023-03-03T18:30:26.540Z,11.23
2023-03-03T18:33:10.216Z,8.87
2023-03-03T18:35:41.496Z,11.17
2023-03-03T18:38:42.164Z,11.37
2023-03-03T18:41:12.984Z,9.37
2023-03-03T18:43:55.380Z,10.97
2023-03-03T18:46:48.818Z,12.40
2023-03-03T18:49:19.010Z,10.93
2023-03-03T18:52:23.970Z,11.63
2023-03-03T18:55:25.134Z,10.23
2023-03-03T18:58:37.843Z,9.60
2023-03-03T19:01:42.841Z,9.83
2023-03-03T19:04:28.783Z,8.83
2023-03-03T19:07:26.572Z,11.00
2023-03-03T19:10:01.400Z,10.73
2023-03-03T19:12:54.587Z,10.53
2023-03-03T19:15:59.131Z,11.03
2023-03-03T19:18:28.864Z,9.97
2023-03-03T19:21:01.893Z,15.13
2023-03-03T19:23:50.935Z,13.90
2023-03-03T19:26:58.715Z,12.47
2023-03-03T19:29:58.423Z,12.50
2023-03-03T19:32:43.777Z,13.37
2023-03-03T19:35:27.058Z,12.37
2023-03-03T19:38:10.778Z,11.90
2023-03-03T19:40:47.617Z,14.27
2023-03-03T19:43:34.010Z,12.47
2023-03-03T19:46:22.243Z,12.67
2023-03-03T19:49:02.571Z,13.30
2023-03-03T19:51:36.917Z,12.20
2023-03-03T19:54:27.687Z,14.20
2023-03-03T19:56:58.460Z,12.80
2023-03-03T19:59:36.640Z,13.07
2023-03-03T20:02:31.421Z,14.53
2023-03-03T20:05:10.544Z,11.77
2023-03-03T20:07:46.419Z,14.77
2023-03-03T20:10:41.352Z,13.80
2023-03-03T20:13:38.800Z,10.90
2023-03-03T20:16:23.848Z,12.30
2023-03-03T20:19:19.820Z,10.97
2023-03-03T20:22:02.822Z,11.97
2023-03-03T20:24:49.702Z,13.00
2023-03-03T20:27:24.144Z,12.73
2023-03-03T20:30:08.557Z,15.07
2023-03-03T20:33:07.044Z,12.93
2023-03-03T20:35:50.553Z,13.30
2023-03-03T20:38:29.896Z,15.77
2023-03-03T20:41:07.917Z,16.10
2023-03-03T20:43:56.741Z,15.23
2023-03-03T20:46:35.695Z,14.63
2023-03-03T20:49:24.698Z,16.77
2023-03-03T20:51:58.980Z,15.73
2023-03-03T20:54:42.848Z,15.73
2023-03-03T20:57:20.000Z,16.90
2023-03-03T20:59:57.771Z,16.53
2023-03-03T21:02:34.192Z,14.37
2023-03-03T21:05:15.891Z,16.33
2023-03-03T21:07:56.994Z,13.33
2023-03-03T21:10:28.338Z,16.57
2023-03-03T21:12:59.391Z,14.43
2023-03-03T21:15:33.813Z,15.90
2023-03-03T21:18:21.677Z,15.40
2023-03-03T21:20:50.139Z,12.83
2023-03-03T21:23:20.953Z,12.37
2023-03-03T21:25:53.161Z,13.13
2023-03-03T21:28:25.722Z,13.60
2023-03-03T21:31:07.473Z,13.93
2023-03-03T21:33:58.250Z,15.23
2023-03-03T21:36:47.116Z,12.10
2023-03-03T21:39:30.210Z,17.20
2023-03-03T21:42:03.071Z,12.47
2023-03-03T21:44:36.321Z,14.30
2023-03-03T21:47:08.391Z,13.90
2023-03-03T21:49:37.664Z,15.43
2023-03-03T21:52:06.663Z,15.13
2023-03-03T21:54:35.022Z,13.77
2023-03-03T21:57:03.501Z,12.97
2023-03-03T21:59:31.953Z,14.53
2023-03-03T22:02:00.432Z,14.47
2023-03-03T22:04:30.755Z,14.40
2023-03-03T22:06:59.317Z,14.63
2023-03-03T22:09:29.098Z,13.10
2023-03-03T22:11:57.798Z,15.37
2023-03-03T22:14:26.114Z,13.20
2023-03-03T22:16:54.715Z,14.80
2023-03-03T22:19:23.434Z,14.83
2023-03-03T22:21:53.425Z,14.27
2023-03-03T22:24:21.877Z,11.27
2023-03-03T22:26:50.421Z,12.90
2023-03-03T22:29:22.841Z,10.67
2023-03-03T22:31:51.712Z,11.17
2023-03-03T22:34:20.443Z,10.93
2023-03-03T22:36:48.950Z,15.13
2023-03-03T22:39:18.689Z,13.17
2023-03-03T22:41:47.255Z,10.73
2023-03-03T22:44:15.570Z,15.03
2023-03-03T22:46:44.072Z,14.63
2023-03-03T22:49:12.498Z,15.20
2023-03-03T22:51:40.877Z,12.80
2023-03-03T22:54:09.248Z,13.90
2023-03-03T22:56:39.298Z,13.23
2023-03-03T22:59:07.683Z,12.63
2023-03-03T23:01:36.080Z,13.07
2023-03-03T23:04:04.523Z,11.80
2023-03-03T23:06:32.898Z,13.07
2023-03-03T23:09:01.327Z,12.73
2023-03-03T23:11:29.746Z,12.23
2023-03-03T23:13:59.885Z,13.20
2023-03-03T23:16:28.638Z,13.07
2023-03-03T23:18:57.067Z,12.67
2023-03-03T23:21:25.651Z,13.27
2023-03-03T23:23:54.026Z,14.90
2023-03-03T23:26:22.366Z,14.27
2023-03-03T23:28:51.273Z,14.33
2023-03-03T23:31:21.071Z,12.73
2023-03-03T23:33:49.500Z,12.07
2023-03-03T23:36:18.817Z,11.33
2023-03-03T23:38:47.309Z,11.00
2023-03-03T23:41:15.733Z,10.30
2023-03-03T23:43:44.109Z,8.63
2023-03-03T23:46:12.520Z,8.33
2023-03-03T23:48:42.307Z,6.90
2023-03-03T23:51:10.615Z,6.30
2023-03-03T23:53:38.970Z,6.73
2023-03-03T23:56:08.404Z,5.27
2023-03-03T23:58:36.731Z,4.63
